Time;durP1;ratioP1;P1;durP2;ratioP2;P2;SDS_P1;SDS_P2;PMS_P1;PMS_P2;Temp;Humidity;BMP_temperature;BMP_pressure;BME280_temperature;BME280_humidity;BME280_pressure;Samples;Min_cycle;Max_cycle;Signal;HPM_P1;HPM_P2
2020/12/30 17:32:20;;;;;;;33.72;21.83;;;3.40;99.90;;;;;;12989004;22;20031;-91
2020/12/30 17:37:22;;;;;;;34.63;23.95;;;3.40;99.90;;;;;;12891505;22;20042;-94
2020/12/30 17:47:42;;;;;;;43.70;26.55;;;3.60;99.90;;;;;;12990979;22;19915;-93
2020/12/30 17:52:44;;;;;;;34.28;23.27;;;3.40;99.90;;;;;;12939671;22;20448;-92
2020/12/30 17:57:46;;;;;;;34.90;23.13;;;3.30;99.90;;;;;;12891143;22;20095;-92
2020/12/30 18:02:47;;;;;;;32.63;22.25;;;3.20;99.90;;;;;;12939558;22;20019;-93
2020/12/30 18:07:52;;;;;;;41.08;27.38;;;3.40;99.90;;;;;;12939602;22;20024;-93
2020/12/30 18:12:53;;;;;;;34.88;22.83;;;3.40;99.90;;;;;;12939477;22;20441;-95
2020/12/30 18:17:55;;;;;;;35.63;21.27;;;3.40;99.90;;;;;;12914958;22;20069;-94
2020/12/30 18:22:56;;;;;;;36.00;22.70;;;3.20;99.90;;;;;;12914947;22;20020;-94
2020/12/30 18:27:58;;;;;;;37.20;22.33;;;3.40;99.90;;;;;;12941358;22;20019;-93
2020/12/30 18:32:59;;;;;;;27.83;19.70;;;3.40;99.90;;;;;;12913822;22;20027;-94
2020/12/30 18:38:01;;;;;;;33.70;21.88;;;3.30;99.90;;;;;;12964024;22;20027;-93
2020/12/30 18:43:03;;;;;;;36.95;24.75;;;3.20;99.90;;;;;;12914699;22;20020;-93
2020/12/30 18:48:05;;;;;;;30.80;19.48;;;3.20;99.90;;;;;;12939381;22;20070;-94
2020/12/30 18:53:10;;;;;;;41.75;24.23;;;3.20;99.90;;;;;;12939908;22;20074;-94
2020/12/30 18:58:12;;;;;;;29.20;20.20;;;3.30;99.90;;;;;;12890599;22;20020;-94
2020/12/30 19:03:13;;;;;;;33.80;22.48;;;3.20;99.90;;;;;;12913939;22;20035;-94
2020/12/30 19:08:15;;;;;;;31.85;19.58;;;3.30;99.90;;;;;;12915692;22;20020;-93
2020/12/30 19:13:17;;;;;;;33.28;21.73;;;3.30;99.90;;;;;;12913535;22;20043;-94
2020/12/30 19:18:19;;;;;;;41.30;21.85;;;3.20;99.90;;;;;;12938156;22;20019;-93
2020/12/30 19:23:20;;;;;;;;;;;3.20;99.90;;;;;;12941078;22;20076;-95
2020/12/30 19:28:22;;;;;;;27.95;19.10;;;3.10;99.90;;;;;;12914354;22;19986;-94
2020/12/30 19:33:24;;;;;;;31.42;19.45;;;3.20;99.90;;;;;;12964115;22;20437;-94
2020/12/30 19:38:25;;;;;;;26.92;19.23;;;3.00;99.90;;;;;;12890782;22;20150;-93
2020/12/30 19:43:27;;;;;;;27.98;19.27;;;2.90;99.90;;;;;;12889168;22;20024;-93
2020/12/30 19:48:28;;;;;;;28.98;18.77;;;2.90;99.90;;;;;;12913784;22;20020;-93
2020/12/30 19:53:29;;;;;;;25.10;17.63;;;3.00;99.90;;;;;;12937976;22;20020;-94
2020/12/30 19:58:31;;;;;;;25.55;18.05;;;2.90;99.90;;;;;;12912893;22;20036;-94
2020/12/30 20:03:33;;;;;;;28.00;17.08;;;2.80;99.90;;;;;;12914051;22;20028;-93
2020/12/30 20:08:34;;;;;;;;;;;2.70;99.90;;;;;;12917746;22;20024;-93
2020/12/30 20:13:36;;;;;;;27.17;18.02;;;2.70;99.90;;;;;;12941643;22;19915;-94
2020/12/30 20:18:38;;;;;;;24.60;17.10;;;2.50;99.90;;;;;;12917938;22;20391;-93
2020/12/30 20:23:40;;;;;;;21.73;14.13;;;2.60;99.90;;;;;;12941777;22;20023;-94
2020/12/30 20:28:43;;;;;;;21.58;15.68;;;2.60;99.90;;;;;;12942029;22;20039;-93
2020/12/30 20:33:45;;;;;;;23.88;16.20;;;2.70;99.90;;;;;;12941293;22;20440;-93
2020/12/30 20:38:47;;;;;;;18.98;13.43;;;2.60;99.90;;;;;;12942517;22;20023;-94
2020/12/30 20:43:49;;;;;;;23.35;14.75;;;2.40;99.90;;;;;;12916300;22;20040;-94
2020/12/30 20:48:52;;;;;;;22.95;15.35;;;2.50;99.90;;;;;;12943283;22;20050;-93
2020/12/30 20:53:53;;;;;;;23.55;13.18;;;2.50;99.90;;;;;;12891575;22;20400;-93
2020/12/30 20:58:55;;;;;;;21.50;13.68;;;2.50;99.90;;;;;;12917010;22;20069;-93
2020/12/30 21:03:56;;;;;;;23.05;13.23;;;2.60;99.90;;;;;;12916380;22;20089;-93
2020/12/30 21:08:58;;;;;;;23.83;12.80;;;2.60;99.90;;;;;;12892066;22;20024;-94
2020/12/30 21:14:00;;;;;;;23.48;13.15;;;2.60;99.90;;;;;;12916749;22;20016;-93
2020/12/30 21:19:02;;;;;;;27.00;14.20;;;2.80;99.90;;;;;;12940337;22;20020;-93
2020/12/30 21:24:03;;;;;;;21.23;14.27;;;2.70;99.90;;;;;;12939968;22;20047;-93
2020/12/30 21:29:05;;;;;;;22.75;15.07;;;2.90;99.90;;;;;;12915146;22;20036;-93
2020/12/30 21:34:07;;;;;;;28.73;18.35;;;2.90;99.90;;;;;;12940999;22;20051;-93
2020/12/30 21:39:08;;;;;;;27.83;16.38;;;2.80;99.90;;;;;;12940658;22;20020;-93
2020/12/30 21:44:10;;;;;;;28.15;19.52;;;2.80;99.90;;;;;;12940399;22;20061;-93
2020/12/30 21:49:17;;;;;;;36.28;16.95;;;3.00;99.90;;;;;;12918977;22;20386;-92
2020/12/30 21:54:18;;;;;;;28.60;18.33;;;2.90;99.90;;;;;;12939697;22;20023;-92
2020/12/30 21:59:20;;;;;;;29.20;18.45;;;3.00;99.90;;;;;;12914808;22;20020;-92
2020/12/30 22:04:26;;;;;;;30.48;17.48;;;3.00;99.90;;;;;;12914778;22;20030;-93
2020/12/30 22:09:28;;;;;;;28.35;18.45;;;3.10;99.90;;;;;;12965439;22;20019;-94
2020/12/30 22:14:29;;;;;;;32.22;20.38;;;3.10;99.90;;;;;;12890518;22;20015;-93
2020/12/30 22:19:31;;;;;;;;;;;3.20;99.90;;;;;;12914726;22;20027;-92
2020/12/30 22:24:32;;;;;;;34.75;22.13;;;3.30;99.90;;;;;;12939869;22;20007;-92
2020/12/30 22:29:33;;;;;;;35.88;19.80;;;3.20;99.90;;;;;;12889585;22;20046;-93
2020/12/30 22:34:35;;;;;;;29.35;20.08;;;3.20;99.90;;;;;;12913675;22;20094;-92
2020/12/30 22:39:36;;;;;;;39.60;24.00;;;3.20;99.90;;;;;;12913567;22;20353;-94
2020/12/30 22:44:38;;;;;;;36.95;21.88;;;3.20;99.90;;;;;;12889288;22;20099;-94
2020/12/30 22:49:39;;;;;;;30.77;20.20;;;3.20;99.90;;;;;;12915236;22;20094;-94
2020/12/30 22:54:41;;;;;;;28.10;18.58;;;3.20;99.90;;;;;;12889095;22;20065;-93
2020/12/30 22:59:43;;;;;;;32.05;18.92;;;3.20;99.90;;;;;;12966614;22;20098;-93
2020/12/30 23:04:44;;;;;;;30.85;17.98;;;3.20;99.90;;;;;;12889872;22;20051;-93
2020/12/30 23:09:46;;;;;;;20.08;14.93;;;3.20;99.90;;;;;;12912268;22;20023;-93
2020/12/30 23:14:47;;;;;;;21.48;14.00;;;3.20;99.90;;;;;;12939473;22;20015;-93
2020/12/30 23:19:52;;;;;;;;;;;3.20;99.90;;;;;;12939863;22;20019;-93
2020/12/30 23:24:54;;;;;;;19.60;13.82;;;3.10;99.90;;;;;;12963339;22;19995;-93
2020/12/30 23:29:55;;;;;;;23.75;14.50;;;3.00;99.90;;;;;;12938197;22;20020;-93
2020/12/30 23:34:56;;;;;;;17.48;11.30;;;3.00;99.90;;;;;;12913210;22;20348;-93
2020/12/30 23:39:58;;;;;;;14.57;10.60;;;3.00;99.90;;;;;;12892200;22;20020;-93
